Lake Taupo — D5EZ7 — position and weather

sailwx.info

Track history (hours):
 
Tides and Currents Weather Stations Pressure Air Temp Water Temp Dewpoint Dewpoint Depression Visibility Wind Speed Wind Dir Waves Ship Positions

Lake Taupo

Last reported at 2017-Nov-18 13:50 UTC. Time now 2017-Nov-19 21:52 UTC.
Position N 34°49' E 139°44'.

Length 182 m; draft 9.1 m.

Type: Cargo ship. MMSI: 636016205.

Date/timePositionNaut miles runAvg speedWind from/ knotsBaromVisibWave heightAir tempDewpointWater temp
2017-Nov-18 13:50N 34°49' E 139°44'617.9
2017-Nov-18 13:30N 34°54' E 139°41'816.4
2017-Nov-18 13:00N 35°02' E 139°41'816.5
2017-Nov-18 12:30N 35°10' E 139°45'611.6
2017-Nov-18 12:00N 35°16' E 139°46'713.7
2017-Nov-18 11:31N 35°22' E 139°42'612.8
2017-Nov-18 11:00N 35°28' E 139°42'1 1.8
2017-Nov-18 10:30N 35°28' E 139°41'0 0.0
2017-Nov-18 10:00N 35°28' E 139°41'0 0.0
2017-Nov-18 09:24N 35°28' E 139°41'0 0.0
2017-Nov-18 09:00N 35°28' E 139°41'0 0.0
2017-Nov-18 08:30N 35°28' E 139°41'0 0.0
2017-Nov-18 08:00N 35°28' E 139°41'0 0.0
2017-Nov-18 07:30N 35°28' E 139°41'0 0.0
2017-Nov-18 07:00N 35°28' E 139°41'0 0.0
2017-Nov-18 06:30N 35°28' E 139°41'0 0.0
2017-Nov-18 06:00N 35°28' E 139°41'0 0.0
2017-Nov-18 05:30N 35°28' E 139°41'0 0.0
2017-Nov-18 04:57N 35°28' E 139°41'0 0.0
2017-Nov-18 04:30N 35°28' E 139°41'0 0.0
2017-Nov-18 04:00N 35°28' E 139°41'0 0.0
2017-Nov-18 03:30N 35°28' E 139°41'0 0.0
2017-Nov-18 03:00N 35°28' E 139°41'0 0.0
2017-Nov-18 02:30N 35°28' E 139°41'0 0.0
2017-Nov-18 02:00N 35°28' E 139°41'0 0.0
2017-Nov-18 01:30N 35°28' E 139°41'0 0.0
2017-Nov-18 01:00N 35°28' E 139°41'0 0.0
2017-Nov-18 00:30N 35°28' E 139°41'0 0.0
2017-Nov-17 23:16N 35°28' E 139°41'0 0.0
2017-Nov-17 22:58N 35°28' E 139°41'0 0.1
2017-Nov-17 22:30N 35°28' E 139°41'1 2.4
2017-Nov-17 22:00N 35°28' E 139°42'5 9.6
2017-Nov-17 21:31N 35°24' E 139°46'5 9.8
2017-Nov-17 21:00N 35°20' E 139°44'511.0
2017-Nov-17 20:30N 35°15' E 139°47'611.1
2017-Nov-17 20:00N 35°09' E 139°47'4 7.7
2017-Nov-17 19:30N 35°06' E 139°45'612.7
2017-Nov-17 19:00N 34°60' E 139°43'713.3
2017-Nov-17 18:30N 34°54' E 139°39'713.0
2017-Nov-17 18:00N 34°48' E 139°35'713.6
2017-Nov-17 17:27N 34°41' E 139°31'230 7.4
2017-Nov-16 10:14N 33°55' E 134°58'617.2
2017-Nov-16 09:52N 34°01' E 134°58'717.5
2017-Nov-16 09:30N 34°07' E 134°58'714.5
2017-Nov-16 09:00N 34°14' E 134°58'815.0
2017-Nov-16 08:30N 34°22' E 135°01'918.1
2017-Nov-16 08:00N 34°27' E 135°09'917.6
2017-Nov-16 07:30N 34°32' E 135°18'5 9.9
2017-Nov-16 07:00N 34°32' E 135°24'0 0.1
2017-Nov-16 06:28N 34°32' E 135°24'0 0.0
2017-Nov-16 05:58N 34°32' E 135°24'0 0.0
2017-Nov-16 05:28N 34°32' E 135°24'0 0.0
2017-Nov-16 04:52N 34°32' E 135°24'0 0.0
2017-Nov-16 04:10N 34°32' E 135°24'0 0.0
2017-Nov-16 03:58N 34°32' E 135°24'0 0.0
2017-Nov-16 03:28N 34°32' E 135°24'0 0.0
2017-Nov-16 02:58N 34°32' E 135°24'0 0.0
2017-Nov-16 02:04N 34°32' E 135°24'0 0.0
2017-Nov-16 01:40N 34°32' E 135°24'0 0.0
2017-Nov-16 01:04N 34°32' E 135°24'0 0.0
2017-Nov-15 23:52N 34°32' E 135°24'0 0.0
2017-Nov-15 23:28N 34°32' E 135°24'0 0.0
2017-Nov-15 22:46N 34°32' E 135°24'0 0.4
2017-Nov-15 22:30N 34°32' E 135°24'4 8.0
2017-Nov-15 22:00N 34°31' E 135°19'816.4
2017-Nov-15 21:30N 34°27' E 135°11'918.1
2017-Nov-15 21:00N 34°20' E 135°03'814.9
2017-Nov-15 20:30N 34°14' E 134°59'5 9.3
2017-Nov-15 20:00N 34°09' E 134°59'4 7.2
2017-Nov-15 19:30N 34°06' E 134°58'612.0
2017-Nov-15 19:00N 33°59' E 134°58'813.9
2017-Nov-15 18:24N 33°51' E 134°56'  
2017-Nov-12 01:05N 38°18' E 121°32'  
Track history (hours):
 
Tides and Currents Weather Stations Pressure Air Temp Water Temp Dewpoint Dewpoint Depression Visibility Wind Speed Wind Dir Waves Ship Positions

Lake Taupo

Last reported at 2017-Nov-18 13:50 UTC. Time now 2017-Nov-19 21:52 UTC.
Position N 34°49' E 139°44'.

Length 182 m; draft 9.1 m.

Type: Cargo ship. MMSI: 636016205.

Date/timePositionNaut miles runAvg speedWind from/ knotsBaromVisibWave heightAir tempDewpointWater temp
2017-Nov-18 13:50N 34°49' E 139°44'617.9
2017-Nov-18 13:30N 34°54' E 139°41'816.4
2017-Nov-18 13:00N 35°02' E 139°41'816.5
2017-Nov-18 12:30N 35°10' E 139°45'611.6
2017-Nov-18 12:00N 35°16' E 139°46'713.7
2017-Nov-18 11:31N 35°22' E 139°42'612.8
2017-Nov-18 11:00N 35°28' E 139°42'1 1.8
2017-Nov-18 10:30N 35°28' E 139°41'0 0.0
2017-Nov-18 10:00N 35°28' E 139°41'0 0.0
2017-Nov-18 09:24N 35°28' E 139°41'0 0.0
2017-Nov-18 09:00N 35°28' E 139°41'0 0.0
2017-Nov-18 08:30N 35°28' E 139°41'0 0.0
2017-Nov-18 08:00N 35°28' E 139°41'0 0.0
2017-Nov-18 07:30N 35°28' E 139°41'0 0.0
2017-Nov-18 07:00N 35°28' E 139°41'0 0.0
2017-Nov-18 06:30N 35°28' E 139°41'0 0.0
2017-Nov-18 06:00N 35°28' E 139°41'0 0.0
2017-Nov-18 05:30N 35°28' E 139°41'0 0.0
2017-Nov-18 04:57N 35°28' E 139°41'0 0.0
2017-Nov-18 04:30N 35°28' E 139°41'0 0.0
2017-Nov-18 04:00N 35°28' E 139°41'0 0.0
2017-Nov-18 03:30N 35°28' E 139°41'0 0.0
2017-Nov-18 03:00N 35°28' E 139°41'0 0.0
2017-Nov-18 02:30N 35°28' E 139°41'0 0.0
2017-Nov-18 02:00N 35°28' E 139°41'0 0.0
2017-Nov-18 01:30N 35°28' E 139°41'0 0.0
2017-Nov-18 01:00N 35°28' E 139°41'0 0.0
2017-Nov-18 00:30N 35°28' E 139°41'0 0.0
2017-Nov-17 23:16N 35°28' E 139°41'0 0.0
2017-Nov-17 22:58N 35°28' E 139°41'0 0.1
2017-Nov-17 22:30N 35°28' E 139°41'1 2.4
2017-Nov-17 22:00N 35°28' E 139°42'5 9.6
2017-Nov-17 21:31N 35°24' E 139°46'5 9.8
2017-Nov-17 21:00N 35°20' E 139°44'511.0
2017-Nov-17 20:30N 35°15' E 139°47'611.1
2017-Nov-17 20:00N 35°09' E 139°47'4 7.7
2017-Nov-17 19:30N 35°06' E 139°45'612.7
2017-Nov-17 19:00N 34°60' E 139°43'713.3
2017-Nov-17 18:30N 34°54' E 139°39'713.0
2017-Nov-17 18:00N 34°48' E 139°35'713.6
2017-Nov-17 17:27N 34°41' E 139°31'230 7.4
2017-Nov-16 10:14N 33°55' E 134°58'617.2
2017-Nov-16 09:52N 34°01' E 134°58'717.5
2017-Nov-16 09:30N 34°07' E 134°58'714.5
2017-Nov-16 09:00N 34°14' E 134°58'815.0
2017-Nov-16 08:30N 34°22' E 135°01'918.1
2017-Nov-16 08:00N 34°27' E 135°09'917.6
2017-Nov-16 07:30N 34°32' E 135°18'5 9.9
2017-Nov-16 07:00N 34°32' E 135°24'0 0.1
2017-Nov-16 06:28N 34°32' E 135°24'0 0.0
2017-Nov-16 05:58N 34°32' E 135°24'0 0.0
2017-Nov-16 05:28N 34°32' E 135°24'0 0.0
2017-Nov-16 04:52N 34°32' E 135°24'0 0.0
2017-Nov-16 04:10N 34°32' E 135°24'0 0.0
2017-Nov-16 03:58N 34°32' E 135°24'0 0.0
2017-Nov-16 03:28N 34°32' E 135°24'0 0.0
2017-Nov-16 02:58N 34°32' E 135°24'0 0.0
2017-Nov-16 02:04N 34°32' E 135°24'0 0.0
2017-Nov-16 01:40N 34°32' E 135°24'0 0.0
2017-Nov-16 01:04N 34°32' E 135°24'0 0.0
2017-Nov-15 23:52N 34°32' E 135°24'0 0.0
2017-Nov-15 23:28N 34°32' E 135°24'0 0.0
2017-Nov-15 22:46N 34°32' E 135°24'0 0.4
2017-Nov-15 22:30N 34°32' E 135°24'4 8.0
2017-Nov-15 22:00N 34°31' E 135°19'816.4
2017-Nov-15 21:30N 34°27' E 135°11'918.1
2017-Nov-15 21:00N 34°20' E 135°03'814.9
2017-Nov-15 20:30N 34°14' E 134°59'5 9.3
2017-Nov-15 20:00N 34°09' E 134°59'4 7.2
2017-Nov-15 19:30N 34°06' E 134°58'612.0
2017-Nov-15 19:00N 33°59' E 134°58'813.9
2017-Nov-15 18:24N 33°51' E 134°56'  
2017-Nov-12 01:05N 38°18' E 121°32'  

Dump ship's entire track history